sensor_id;sensor_type;location;lat;lon;timestamp;P1;durP1;ratioP1;P2;durP2;ratioP2
32746;SDS011;19118;50.860;13.662;2022-08-19T00:01:31;45.50;;;30.77;;
32746;SDS011;19118;50.860;13.662;2022-08-19T00:06:33;53.85;;;33.05;;
32746;SDS011;19118;50.860;13.662;2022-08-19T00:11:34;48.92;;;32.72;;
32746;SDS011;19118;50.860;13.662;2022-08-19T00:16:37;43.95;;;31.65;;
32746;SDS011;19118;50.860;13.662;2022-08-19T00:21:38;44.88;;;33.28;;
32746;SDS011;19118;50.860;13.662;2022-08-19T00:26:40;48.97;;;31.38;;
32746;SDS011;19118;50.860;13.662;2022-08-19T00:31:41;42.72;;;30.52;;
32746;SDS011;19118;50.860;13.662;2022-08-19T00:36:43;37.50;;;29.95;;
32746;SDS011;19118;50.860;13.662;2022-08-19T00:41:43;46.28;;;32.28;;
32746;SDS011;19118;50.860;13.662;2022-08-19T00:46:47;42.30;;;29.15;;
32746;SDS011;19118;50.860;13.662;2022-08-19T00:51:51;36.63;;;28.15;;
32746;SDS011;19118;50.860;13.662;2022-08-19T00:56:55;38.50;;;29.85;;
32746;SDS011;19118;50.860;13.662;2022-08-19T01:01:55;35.80;;;29.10;;
32746;SDS011;19118;50.860;13.662;2022-08-19T01:06:56;34.20;;;26.75;;
32746;SDS011;19118;50.860;13.662;2022-08-19T01:11:57;35.47;;;27.83;;
32746;SDS011;19118;50.860;13.662;2022-08-19T01:16:58;39.50;;;27.33;;
32746;SDS011;19118;50.860;13.662;2022-08-19T01:22:08;33.17;;;25.50;;
32746;SDS011;19118;50.860;13.662;2022-08-19T01:27:21;39.03;;;26.45;;
32746;SDS011;19118;50.860;13.662;2022-08-19T01:32:22;32.03;;;25.47;;
32746;SDS011;19118;50.860;13.662;2022-08-19T01:37:22;40.20;;;28.55;;
32746;SDS011;19118;50.860;13.662;2022-08-19T01:42:24;39.60;;;29.52;;
32746;SDS011;19118;50.860;13.662;2022-08-19T01:47:25;45.30;;;32.35;;
32746;SDS011;19118;50.860;13.662;2022-08-19T01:52:25;39.53;;;31.80;;
32746;SDS011;19118;50.860;13.662;2022-08-19T01:57:25;42.13;;;30.98;;
32746;SDS011;19118;50.860;13.662;2022-08-19T02:02:26;42.17;;;31.95;;
32746;SDS011;19118;50.860;13.662;2022-08-19T02:07:27;35.37;;;28.80;;
32746;SDS011;19118;50.860;13.662;2022-08-19T02:12:28;46.45;;;31.83;;
32746;SDS011;19118;50.860;13.662;2022-08-19T02:17:28;45.40;;;30.73;;
32746;SDS011;19118;50.860;13.662;2022-08-19T02:22:29;40.38;;;30.85;;
32746;SDS011;19118;50.860;13.662;2022-08-19T02:33:50;35.95;;;27.58;;
32746;SDS011;19118;50.860;13.662;2022-08-19T02:38:52;40.03;;;29.30;;
32746;SDS011;19118;50.860;13.662;2022-08-19T02:43:53;37.55;;;28.33;;
32746;SDS011;19118;50.860;13.662;2022-08-19T02:48:56;38.92;;;28.25;;
32746;SDS011;19118;50.860;13.662;2022-08-19T02:53:59;33.50;;;29.02;;
32746;SDS011;19118;50.860;13.662;2022-08-19T02:58:59;44.97;;;31.48;;
32746;SDS011;19118;50.860;13.662;2022-08-19T03:04:01;46.03;;;34.13;;
32746;SDS011;19118;50.860;13.662;2022-08-19T03:09:04;47.75;;;33.15;;
32746;SDS011;19118;50.860;13.662;2022-08-19T03:14:05;46.20;;;35.03;;
32746;SDS011;19118;50.860;13.662;2022-08-19T03:19:07;41.40;;;32.42;;
32746;SDS011;19118;50.860;13.662;2022-08-19T03:24:08;47.20;;;33.22;;
32746;SDS011;19118;50.860;13.662;2022-08-19T03:29:08;45.07;;;33.17;;
32746;SDS011;19118;50.860;13.662;2022-08-19T03:34:14;51.40;;;33.30;;
32746;SDS011;19118;50.860;13.662;2022-08-19T03:39:17;44.03;;;32.42;;
32746;SDS011;19118;50.860;13.662;2022-08-19T03:44:19;48.13;;;34.83;;
32746;SDS011;19118;50.860;13.662;2022-08-19T03:49:22;50.35;;;34.20;;
32746;SDS011;19118;50.860;13.662;2022-08-19T03:54:24;46.88;;;32.83;;
32746;SDS011;19118;50.860;13.662;2022-08-19T03:59:30;48.10;;;36.00;;
32746;SDS011;19118;50.860;13.662;2022-08-19T04:04:31;47.22;;;35.70;;
32746;SDS011;19118;50.860;13.662;2022-08-19T04:09:33;49.20;;;36.30;;
32746;SDS011;19118;50.860;13.662;2022-08-19T04:14:34;50.00;;;35.42;;
32746;SDS011;19118;50.860;13.662;2022-08-19T04:19:35;51.05;;;37.22;;
32746;SDS011;19118;50.860;13.662;2022-08-19T04:24:35;50.22;;;34.90;;
32746;SDS011;19118;50.860;13.662;2022-08-19T04:29:36;61.08;;;38.92;;
32746;SDS011;19118;50.860;13.662;2022-08-19T04:34:39;52.08;;;37.17;;
32746;SDS011;19118;50.860;13.662;2022-08-19T04:39:39;66.13;;;42.30;;
32746;SDS011;19118;50.860;13.662;2022-08-19T04:44:58;56.30;;;40.83;;
32746;SDS011;19118;50.860;13.662;2022-08-19T04:49:59;61.28;;;41.40;;
32746;SDS011;19118;50.860;13.662;2022-08-19T04:55:00;59.22;;;39.25;;
32746;SDS011;19118;50.860;13.662;2022-08-19T05:00:00;61.53;;;42.63;;
32746;SDS011;19118;50.860;13.662;2022-08-19T05:05:01;59.67;;;40.97;;
32746;SDS011;19118;50.860;13.662;2022-08-19T05:10:04;57.25;;;38.30;;
32746;SDS011;19118;50.860;13.662;2022-08-19T05:15:06;59.97;;;40.75;;
32746;SDS011;19118;50.860;13.662;2022-08-19T05:20:08;64.57;;;42.88;;
32746;SDS011;19118;50.860;13.662;2022-08-19T05:25:28;61.72;;;42.20;;
32746;SDS011;19118;50.860;13.662;2022-08-19T05:30:28;64.33;;;45.07;;
32746;SDS011;19118;50.860;13.662;2022-08-19T05:35:29;76.47;;;46.20;;
32746;SDS011;19118;50.860;13.662;2022-08-19T05:40:30;66.75;;;43.45;;
32746;SDS011;19118;50.860;13.662;2022-08-19T05:45:31;61.37;;;41.63;;
32746;SDS011;19118;50.860;13.662;2022-08-19T05:50:31;56.83;;;38.88;;
32746;SDS011;19118;50.860;13.662;2022-08-19T05:55:32;57.40;;;36.87;;
32746;SDS011;19118;50.860;13.662;2022-08-19T06:00:33;48.97;;;33.70;;
32746;SDS011;19118;50.860;13.662;2022-08-19T06:05:35;45.83;;;33.53;;
32746;SDS011;19118;50.860;13.662;2022-08-19T06:10:35;54.72;;;35.40;;
32746;SDS011;19118;50.860;13.662;2022-08-19T06:15:36;44.45;;;31.23;;
32746;SDS011;19118;50.860;13.662;2022-08-19T06:20:37;45.90;;;30.00;;
32746;SDS011;19118;50.860;13.662;2022-08-19T06:25:38;45.07;;;32.87;;
32746;SDS011;19118;50.860;13.662;2022-08-19T06:30:39;42.80;;;29.95;;
32746;SDS011;19118;50.860;13.662;2022-08-19T06:35:40;48.40;;;29.30;;
32746;SDS011;19118;50.860;13.662;2022-08-19T06:40:41;37.72;;;27.00;;
32746;SDS011;19118;50.860;13.662;2022-08-19T06:45:41;38.92;;;28.25;;
32746;SDS011;19118;50.860;13.662;2022-08-19T06:50:42;42.13;;;26.35;;
32746;SDS011;19118;50.860;13.662;2022-08-19T06:55:42;39.20;;;27.40;;
32746;SDS011;19118;50.860;13.662;2022-08-19T07:00:43;42.08;;;29.02;;
32746;SDS011;19118;50.860;13.662;2022-08-19T07:05:43;37.30;;;25.77;;
32746;SDS011;19118;50.860;13.662;2022-08-19T07:10:44;34.10;;;25.70;;
32746;SDS011;19118;50.860;13.662;2022-08-19T07:15:45;28.77;;;23.23;;
32746;SDS011;19118;50.860;13.662;2022-08-19T07:20:47;33.53;;;23.05;;
32746;SDS011;19118;50.860;13.662;2022-08-19T07:25:48;36.38;;;24.92;;
32746;SDS011;19118;50.860;13.662;2022-08-19T07:30:48;31.30;;;22.97;;
32746;SDS011;19118;50.860;13.662;2022-08-19T07:35:49;30.27;;;22.92;;
32746;SDS011;19118;50.860;13.662;2022-08-19T07:40:50;37.78;;;22.50;;
32746;SDS011;19118;50.860;13.662;2022-08-19T07:45:52;35.60;;;23.15;;
32746;SDS011;19118;50.860;13.662;2022-08-19T07:50:56;38.78;;;23.63;;
32746;SDS011;19118;50.860;13.662;2022-08-19T07:56:02;30.65;;;22.98;;
32746;SDS011;19118;50.860;13.662;2022-08-19T08:01:04;51.28;;;26.25;;
32746;SDS011;19118;50.860;13.662;2022-08-19T08:06:06;38.70;;;26.23;;
32746;SDS011;19118;50.860;13.662;2022-08-19T08:11:26;39.63;;;23.83;;
32746;SDS011;19118;50.860;13.662;2022-08-19T08:16:27;34.22;;;24.35;;
32746;SDS011;19118;50.860;13.662;2022-08-19T08:21:31;42.45;;;28.20;;
32746;SDS011;19118;50.860;13.662;2022-08-19T08:26:33;39.95;;;25.90;;
32746;SDS011;19118;50.860;13.662;2022-08-19T08:31:33;39.17;;;24.50;;
32746;SDS011;19118;50.860;13.662;2022-08-19T08:36:41;40.45;;;25.90;;
32746;SDS011;19118;50.860;13.662;2022-08-19T08:41:53;30.48;;;20.27;;
32746;SDS011;19118;50.860;13.662;2022-08-19T08:47:09;33.15;;;21.27;;
32746;SDS011;19118;50.860;13.662;2022-08-19T08:52:15;32.75;;;21.15;;
32746;SDS011;19118;50.860;13.662;2022-08-19T08:57:27;34.77;;;21.53;;
32746;SDS011;19118;50.860;13.662;2022-08-19T09:02:31;33.42;;;22.23;;
32746;SDS011;19118;50.860;13.662;2022-08-19T09:18:04;24.20;;;18.73;;
32746;SDS011;19118;50.860;13.662;2022-08-19T09:23:04;22.95;;;17.27;;
32746;SDS011;19118;50.860;13.662;2022-08-19T09:28:05;23.92;;;15.35;;
32746;SDS011;19118;50.860;13.662;2022-08-19T09:33:06;23.80;;;16.08;;
32746;SDS011;19118;50.860;13.662;2022-08-19T09:38:06;28.60;;;16.25;;
32746;SDS011;19118;50.860;13.662;2022-08-19T09:43:07;20.65;;;15.82;;
32746;SDS011;19118;50.860;13.662;2022-08-19T09:48:08;17.77;;;14.82;;
32746;SDS011;19118;50.860;13.662;2022-08-19T09:53:09;20.67;;;16.25;;
32746;SDS011;19118;50.860;13.662;2022-08-19T09:58:09;17.83;;;13.03;;
32746;SDS011;19118;50.860;13.662;2022-08-19T10:03:10;14.00;;;10.32;;
32746;SDS011;19118;50.860;13.662;2022-08-19T10:08:11;15.93;;;10.55;;
32746;SDS011;19118;50.860;13.662;2022-08-19T10:13:12;10.95;;;9.52;;
32746;SDS011;19118;50.860;13.662;2022-08-19T10:18:14;11.40;;;9.13;;
32746;SDS011;19118;50.860;13.662;2022-08-19T10:23:18;12.20;;;7.53;;
32746;SDS011;19118;50.860;13.662;2022-08-19T10:28:20;9.40;;;7.63;;
32746;SDS011;19118;50.860;13.662;2022-08-19T10:33:20;9.67;;;7.73;;
32746;SDS011;19118;50.860;13.662;2022-08-19T10:38:21;10.03;;;7.17;;
32746;SDS011;19118;50.860;13.662;2022-08-19T10:43:21;6.95;;;5.50;;
32746;SDS011;19118;50.860;13.662;2022-08-19T10:48:22;5.18;;;4.65;;
32746;SDS011;19118;50.860;13.662;2022-08-19T10:53:22;4.67;;;3.97;;
32746;SDS011;19118;50.860;13.662;2022-08-19T10:58:25;5.75;;;4.30;;
32746;SDS011;19118;50.860;13.662;2022-08-19T11:03:26;18.75;;;14.43;;
32746;SDS011;19118;50.860;13.662;2022-08-19T11:08:29;20.85;;;16.92;;
32746;SDS011;19118;50.860;13.662;2022-08-19T11:13:32;17.13;;;13.55;;
32746;SDS011;19118;50.860;13.662;2022-08-19T11:18:37;11.88;;;10.35;;
32746;SDS011;19118;50.860;13.662;2022-08-19T11:23:39;9.60;;;7.95;;
32746;SDS011;19118;50.860;13.662;2022-08-19T11:28:40;8.75;;;7.35;;
32746;SDS011;19118;50.860;13.662;2022-08-19T11:33:41;9.18;;;7.15;;
32746;SDS011;19118;50.860;13.662;2022-08-19T11:38:42;8.57;;;7.28;;
32746;SDS011;19118;50.860;13.662;2022-08-19T11:43:42;8.75;;;7.47;;
32746;SDS011;19118;50.860;13.662;2022-08-19T11:48:43;6.28;;;5.00;;
32746;SDS011;19118;50.860;13.662;2022-08-19T11:53:44;6.97;;;5.85;;
32746;SDS011;19118;50.860;13.662;2022-08-19T11:58:45;4.70;;;3.03;;
32746;SDS011;19118;50.860;13.662;2022-08-19T12:03:47;3.75;;;3.45;;
32746;SDS011;19118;50.860;13.662;2022-08-19T12:08:48;3.33;;;3.03;;
32746;SDS011;19118;50.860;13.662;2022-08-19T12:13:49;2.60;;;2.33;;
32746;SDS011;19118;50.860;13.662;2022-08-19T12:18:50;4.10;;;3.30;;
32746;SDS011;19118;50.860;13.662;2022-08-19T12:23:51;4.55;;;3.25;;
32746;SDS011;19118;50.860;13.662;2022-08-19T12:28:51;6.30;;;3.90;;
32746;SDS011;19118;50.860;13.662;2022-08-19T12:33:52;4.72;;;4.22;;
32746;SDS011;19118;50.860;13.662;2022-08-19T12:38:52;5.07;;;4.57;;
32746;SDS011;19118;50.860;13.662;2022-08-19T12:43:53;6.57;;;4.45;;
32746;SDS011;19118;50.860;13.662;2022-08-19T12:48:53;6.50;;;5.83;;
32746;SDS011;19118;50.860;13.662;2022-08-19T12:53:54;6.97;;;5.50;;
32746;SDS011;19118;50.860;13.662;2022-08-19T12:58:54;6.93;;;6.25;;
32746;SDS011;19118;50.860;13.662;2022-08-19T13:03:55;13.82;;;11.77;;
32746;SDS011;19118;50.860;13.662;2022-08-19T13:08:56;20.27;;;14.33;;
32746;SDS011;19118;50.860;13.662;2022-08-19T13:13:56;18.95;;;16.17;;
32746;SDS011;19118;50.860;13.662;2022-08-19T13:18:57;17.00;;;14.50;;
32746;SDS011;19118;50.860;13.662;2022-08-19T13:23:57;19.77;;;15.68;;
32746;SDS011;19118;50.860;13.662;2022-08-19T13:28:58;19.77;;;14.98;;
32746;SDS011;19118;50.860;13.662;2022-08-19T13:34:18;17.75;;;15.73;;
32746;SDS011;19118;50.860;13.662;2022-08-19T13:39:25;19.57;;;17.00;;
32746;SDS011;19118;50.860;13.662;2022-08-19T13:44:25;26.17;;;20.33;;
32746;SDS011;19118;50.860;13.662;2022-08-19T13:49:29;29.80;;;24.88;;
32746;SDS011;19118;50.860;13.662;2022-08-19T13:54:30;31.70;;;24.95;;
32746;SDS011;19118;50.860;13.662;2022-08-19T13:59:31;36.50;;;27.07;;
32746;SDS011;19118;50.860;13.662;2022-08-19T14:04:32;34.70;;;25.80;;
32746;SDS011;19118;50.860;13.662;2022-08-19T14:09:32;36.15;;;27.90;;
32746;SDS011;19118;50.860;13.662;2022-08-19T14:14:35;39.50;;;28.37;;
32746;SDS011;19118;50.860;13.662;2022-08-19T14:19:37;36.90;;;28.17;;
32746;SDS011;19118;50.860;13.662;2022-08-19T14:24:37;35.50;;;28.37;;
32746;SDS011;19118;50.860;13.662;2022-08-19T14:29:39;51.85;;;34.67;;
32746;SDS011;19118;50.860;13.662;2022-08-19T14:34:40;57.60;;;38.20;;
32746;SDS011;19118;50.860;13.662;2022-08-19T14:39:41;54.33;;;36.95;;
32746;SDS011;19118;50.860;13.662;2022-08-19T14:44:41;55.78;;;35.58;;
32746;SDS011;19118;50.860;13.662;2022-08-19T14:49:42;53.63;;;37.30;;
32746;SDS011;19118;50.860;13.662;2022-08-19T14:54:43;51.67;;;35.10;;
32746;SDS011;19118;50.860;13.662;2022-08-19T14:59:44;55.60;;;35.58;;
32746;SDS011;19118;50.860;13.662;2022-08-19T15:04:44;60.20;;;38.78;;
32746;SDS011;19118;50.860;13.662;2022-08-19T15:09:45;54.60;;;35.40;;
32746;SDS011;19118;50.860;13.662;2022-08-19T15:14:49;47.22;;;32.55;;
32746;SDS011;19118;50.860;13.662;2022-08-19T15:19:50;57.97;;;38.15;;
32746;SDS011;19118;50.860;13.662;2022-08-19T15:24:51;56.58;;;37.97;;
32746;SDS011;19118;50.860;13.662;2022-08-19T15:29:54;63.28;;;40.03;;
32746;SDS011;19118;50.860;13.662;2022-08-19T15:34:54;53.93;;;36.17;;
32746;SDS011;19118;50.860;13.662;2022-08-19T15:39:55;51.85;;;35.88;;
32746;SDS011;19118;50.860;13.662;2022-08-19T15:44:55;45.05;;;29.23;;
32746;SDS011;19118;50.860;13.662;2022-08-19T15:49:56;40.13;;;29.02;;
32746;SDS011;19118;50.860;13.662;2022-08-19T15:54:56;45.97;;;30.70;;
32746;SDS011;19118;50.860;13.662;2022-08-19T15:59:57;47.57;;;31.80;;
32746;SDS011;19118;50.860;13.662;2022-08-19T16:05:17;42.55;;;28.85;;
32746;SDS011;19118;50.860;13.662;2022-08-19T16:10:38;42.33;;;28.90;;
32746;SDS011;19118;50.860;13.662;2022-08-19T16:15:39;50.95;;;32.85;;
32746;SDS011;19118;50.860;13.662;2022-08-19T16:20:41;53.20;;;35.50;;
32746;SDS011;19118;50.860;13.662;2022-08-19T16:25:43;56.90;;;37.40;;
32746;SDS011;19118;50.860;13.662;2022-08-19T16:30:43;42.60;;;28.08;;
32746;SDS011;19118;50.860;13.662;2022-08-19T16:35:44;38.07;;;27.07;;
32746;SDS011;19118;50.860;13.662;2022-08-19T16:40:44;38.30;;;26.07;;
32746;SDS011;19118;50.860;13.662;2022-08-19T16:45:46;46.83;;;30.02;;
32746;SDS011;19118;50.860;13.662;2022-08-19T16:50:48;40.97;;;29.02;;
32746;SDS011;19118;50.860;13.662;2022-08-19T16:55:49;43.35;;;30.88;;
32746;SDS011;19118;50.860;13.662;2022-08-19T17:00:53;41.28;;;31.05;;
32746;SDS011;19118;50.860;13.662;2022-08-19T17:05:55;48.88;;;31.83;;
32746;SDS011;19118;50.860;13.662;2022-08-19T17:11:01;53.22;;;33.08;;
32746;SDS011;19118;50.860;13.662;2022-08-19T17:16:02;56.88;;;35.63;;
32746;SDS011;19118;50.860;13.662;2022-08-19T17:21:03;49.83;;;32.03;;
32746;SDS011;19118;50.860;13.662;2022-08-19T17:26:04;47.70;;;30.35;;
32746;SDS011;19118;50.860;13.662;2022-08-19T17:31:05;47.00;;;31.20;;
32746;SDS011;19118;50.860;13.662;2022-08-19T17:36:06;50.42;;;31.40;;
32746;SDS011;19118;50.860;13.662;2022-08-19T17:41:07;41.75;;;29.42;;
32746;SDS011;19118;50.860;13.662;2022-08-19T17:46:07;51.83;;;32.33;;
32746;SDS011;19118;50.860;13.662;2022-08-19T17:51:13;47.47;;;30.42;;
32746;SDS011;19118;50.860;13.662;2022-08-19T17:56:15;42.20;;;28.83;;
32746;SDS011;19118;50.860;13.662;2022-08-19T18:01:17;43.67;;;28.08;;
32746;SDS011;19118;50.860;13.662;2022-08-19T18:06:18;36.00;;;26.42;;
32746;SDS011;19118;50.860;13.662;2022-08-19T18:11:18;40.27;;;28.00;;
32746;SDS011;19118;50.860;13.662;2022-08-19T18:16:18;36.17;;;25.85;;
32746;SDS011;19118;50.860;13.662;2022-08-19T18:21:21;37.47;;;26.13;;
32746;SDS011;19118;50.860;13.662;2022-08-19T18:26:28;34.75;;;25.63;;
32746;SDS011;19118;50.860;13.662;2022-08-19T18:31:29;40.20;;;27.65;;
32746;SDS011;19118;50.860;13.662;2022-08-19T18:36:29;43.37;;;25.77;;
32746;SDS011;19118;50.860;13.662;2022-08-19T18:41:33;44.42;;;25.98;;
32746;SDS011;19118;50.860;13.662;2022-08-19T18:46:52;42.08;;;27.85;;
32746;SDS011;19118;50.860;13.662;2022-08-19T18:52:11;48.97;;;30.38;;
32746;SDS011;19118;50.860;13.662;2022-08-19T18:57:12;50.55;;;29.98;;
32746;SDS011;19118;50.860;13.662;2022-08-19T19:02:13;45.50;;;29.27;;
32746;SDS011;19118;50.860;13.662;2022-08-19T19:07:14;44.70;;;31.23;;
32746;SDS011;19118;50.860;13.662;2022-08-19T19:12:17;46.65;;;31.05;;
32746;SDS011;19118;50.860;13.662;2022-08-19T19:17:17;38.17;;;29.27;;
32746;SDS011;19118;50.860;13.662;2022-08-19T19:22:24;47.13;;;32.35;;
32746;SDS011;19118;50.860;13.662;2022-08-19T19:27:25;53.50;;;33.67;;
32746;SDS011;19118;50.860;13.662;2022-08-19T19:32:26;53.27;;;34.13;;
32746;SDS011;19118;50.860;13.662;2022-08-19T19:37:31;56.38;;;35.15;;
32746;SDS011;19118;50.860;13.662;2022-08-19T19:42:32;61.20;;;36.05;;
32746;SDS011;19118;50.860;13.662;2022-08-19T19:47:32;57.90;;;38.00;;
32746;SDS011;19118;50.860;13.662;2022-08-19T19:52:32;64.17;;;43.60;;
32746;SDS011;19118;50.860;13.662;2022-08-19T19:57:33;68.47;;;43.60;;
32746;SDS011;19118;50.860;13.662;2022-08-19T20:02:33;84.03;;;49.23;;
32746;SDS011;19118;50.860;13.662;2022-08-19T20:07:33;78.07;;;47.40;;
32746;SDS011;19118;50.860;13.662;2022-08-19T20:12:52;77.45;;;47.65;;
32746;SDS011;19118;50.860;13.662;2022-08-19T20:17:53;70.20;;;44.33;;
32746;SDS011;19118;50.860;13.662;2022-08-19T20:22:54;72.77;;;44.87;;
32746;SDS011;19118;50.860;13.662;2022-08-19T20:27:54;77.10;;;46.83;;
32746;SDS011;19118;50.860;13.662;2022-08-19T20:32:55;69.73;;;45.43;;
32746;SDS011;19118;50.860;13.662;2022-08-19T20:37:55;81.67;;;44.63;;
32746;SDS011;19118;50.860;13.662;2022-08-19T20:42:55;68.83;;;43.07;;
32746;SDS011;19118;50.860;13.662;2022-08-19T20:47:56;73.60;;;41.42;;
32746;SDS011;19118;50.860;13.662;2022-08-19T20:52:56;65.35;;;40.85;;
32746;SDS011;19118;50.860;13.662;2022-08-19T20:57:57;63.08;;;39.45;;
32746;SDS011;19118;50.860;13.662;2022-08-19T21:02:57;59.23;;;37.93;;
32746;SDS011;19118;50.860;13.662;2022-08-19T21:07:57;64.13;;;38.30;;
32746;SDS011;19118;50.860;13.662;2022-08-19T21:12:58;59.53;;;37.00;;
32746;SDS011;19118;50.860;13.662;2022-08-19T21:17:58;56.67;;;36.87;;
32746;SDS011;19118;50.860;13.662;2022-08-19T21:23:02;59.63;;;36.33;;
32746;SDS011;19118;50.860;13.662;2022-08-19T21:28:04;62.67;;;38.67;;
32746;SDS011;19118;50.860;13.662;2022-08-19T21:33:05;63.33;;;39.40;;
32746;SDS011;19118;50.860;13.662;2022-08-19T21:38:05;61.13;;;38.25;;
32746;SDS011;19118;50.860;13.662;2022-08-19T21:43:06;63.30;;;38.95;;
32746;SDS011;19118;50.860;13.662;2022-08-19T21:48:06;62.77;;;38.63;;
32746;SDS011;19118;50.860;13.662;2022-08-19T21:53:07;60.47;;;38.58;;
32746;SDS011;19118;50.860;13.662;2022-08-19T21:58:08;60.10;;;38.63;;
32746;SDS011;19118;50.860;13.662;2022-08-19T22:03:08;63.90;;;38.80;;
32746;SDS011;19118;50.860;13.662;2022-08-19T22:08:08;61.67;;;35.78;;
32746;SDS011;19118;50.860;13.662;2022-08-19T22:13:09;61.35;;;35.50;;
32746;SDS011;19118;50.860;13.662;2022-08-19T22:18:10;65.07;;;37.15;;
32746;SDS011;19118;50.860;13.662;2022-08-19T22:23:12;56.55;;;34.85;;
32746;SDS011;19118;50.860;13.662;2022-08-19T22:28:14;58.35;;;36.35;;
32746;SDS011;19118;50.860;13.662;2022-08-19T22:33:16;65.22;;;36.58;;
32746;SDS011;19118;50.860;13.662;2022-08-19T22:38:18;63.72;;;35.58;;
32746;SDS011;19118;50.860;13.662;2022-08-19T22:43:19;64.10;;;36.87;;
32746;SDS011;19118;50.860;13.662;2022-08-19T22:48:24;54.75;;;35.30;;
32746;SDS011;19118;50.860;13.662;2022-08-19T22:53:27;55.55;;;33.42;;
32746;SDS011;19118;50.860;13.662;2022-08-19T22:58:27;50.80;;;32.70;;
32746;SDS011;19118;50.860;13.662;2022-08-19T23:03:28;59.60;;;35.38;;
32746;SDS011;19118;50.860;13.662;2022-08-19T23:08:29;52.60;;;34.13;;
32746;SDS011;19118;50.860;13.662;2022-08-19T23:13:29;55.80;;;33.00;;
32746;SDS011;19118;50.860;13.662;2022-08-19T23:18:30;64.93;;;37.70;;
32746;SDS011;19118;50.860;13.662;2022-08-19T23:23:31;60.40;;;37.60;;
32746;SDS011;19118;50.860;13.662;2022-08-19T23:28:31;71.53;;;39.67;;
32746;SDS011;19118;50.860;13.662;2022-08-19T23:33:50;70.25;;;39.22;;
32746;SDS011;19118;50.860;13.662;2022-08-19T23:38:52;65.88;;;38.72;;
32746;SDS011;19118;50.860;13.662;2022-08-19T23:43:53;69.53;;;40.50;;
32746;SDS011;19118;50.860;13.662;2022-08-19T23:48:53;68.95;;;41.08;;
32746;SDS011;19118;50.860;13.662;2022-08-19T23:53:54;64.38;;;37.03;;
32746;SDS011;19118;50.860;13.662;2022-08-19T23:58:54;68.53;;;41.07;;
